Hauptseite
METAR-TAF:

METAR-TAF

Flughäfen :

Flughafen Ostende-Brügge

Ostende, Belgien

Breite: 51-12N, Länge: 002-52E, Höhe: 4 m

Beobachtung

Neuester Wetterbericht von vor 27 Minuten, um 01:50 UTC
Wind 5 kt aus Ost/Nordost
Temperatur 3°C
Luftfeuchtigkeit 81%
Luftdruck 1032 hPa
Sichtweite 10 km oder mehr
Leicht bewölkt in der Höhe von 2200 ft

METAR: EBOS 150150Z 07005KT 9999 FEW022 03/M00 Q1032 NOSIG

Zeit: 04:17 (02:17 UTC)

Prognose

Neuester Wetterbericht von vor 3 Stunden und 7 Minuten, um 23:10 UTC
Gültige Prognose vom 15 um 00 UTC bis 16 um 06 UTC
Wind 7 kt aus Nord/Nordost
Sichtweite 10 km oder mehr
Leicht bewölkt in der Höhe von 2500 ft

TAF: EBOS 142310Z 1500/1606 02007KT 9999 FEW025

Wetterbeobachtungen und Prognosen von mehr als 4000 Flughäfen (METAR und TAF Bericht).

Die verfügbaren Stationen werden durch gelbe und rote Markierungen auf der Karte dargestellt.

Führen Sie die Maus auf sie, um den Namen der Station zu sehen.

Darauf klicken, um die Beobachtung von Wetterbeobachtungen und Prognosen zu sehen.

Um die Karte zu ändern : klicken Sie auf den grünen Tasten mit einem schwarzen Kreuz Zum Vergrößern, auf den grünen Button mit einem Gedankenstrich zu verkleinern, oder auf die grünen Pfeile für benachbarte Karten.


METAR-TAF: